»·PEaware :: N851D KHQM-S23

N851D :: KHQM-S23

FLIGHT INFORMATION

Flight Status: Arrived
Operator: Privately registered:
United States
More flights under this callsign
Pilot: Jim P. (2486)
Aircraft: ROCKWELL MUSTANG
(P51)
More flights by this aircraft type
Origin: KHQM Bowerman
United States
Destination: S23 Ione Mun
United States
More flights between these airports :: More routes between these airports
Route: +HQM V204 OLM V187 ELN V336 EPH V120 GEG V112 CEMOM
File this flight plan on PilotEdge
Remarks:
Altitude:
(Current/Filed)
13,000ft
Speed:
(Current/Filed)
334kts
Departed: 22-Oct-20 11:48 AM
Arrived: 22-Oct-20 01:04 PM
Distance/Time
Traveled:
283nm/1:16
Distance/Time
To Go:
Arrived

Flight Plot

Page will automatically refresh every two minutes.

Flight plan parsing failed; only flown route is shown


Map Options




Map Legend


Flown Route
Filed Route
Departure Airport
Arrival Airport
Navaid (VOR, NDB)
Fix

Horizontal Profiles

Position Reports

Time Latitude Longitude Heading Altitude Ground
Speed
22-Oct-20 11:26 46.973663 -123.927264 310 20ft 0kts
22-Oct-20 11:27 46.973663 -123.927264 310 20ft 0kts
22-Oct-20 11:28 46.973663 -123.927264 310 20ft 0kts
22-Oct-20 11:29 46.973663 -123.927264 310 20ft 0kts
22-Oct-20 11:30 46.973670 -123.927276 310 20ft 0kts
22-Oct-20 11:31 46.973671 -123.927277 310 20ft 0kts
22-Oct-20 11:32 46.973672 -123.927279 311 20ft 0kts
22-Oct-20 11:33 46.973673 -123.927280 312 20ft 0kts
22-Oct-20 11:34 46.973674 -123.927282 313 20ft 0kts
22-Oct-20 11:35 46.973675 -123.927283 314 20ft 0kts
22-Oct-20 11:36 46.973676 -123.927285 315 20ft 0kts
22-Oct-20 11:37 46.973677 -123.927286 316 20ft 0kts
22-Oct-20 11:38 46.973678 -123.927287 317 20ft 0kts
22-Oct-20 11:39 46.973654 -123.927926 250 20ft 4kts
22-Oct-20 11:40 46.972895 -123.931424 238 20ft 12kts
22-Oct-20 11:41 46.972234 -123.936034 257 20ft 16kts
22-Oct-20 11:42 46.971512 -123.942336 256 20ft 16kts
22-Oct-20 11:43 46.970953 -123.946064 215 20ft 0kts
22-Oct-20 11:44 46.970951 -123.946065 216 20ft 0kts
22-Oct-20 11:45 46.970950 -123.946067 217 20ft 0kts
22-Oct-20 11:46 46.970094 -123.945870 87 20ft 3kts
22-Oct-20 11:47 46.973797 -123.916254 83 743ft 113kts
22-Oct-20 11:48 46.970546 -123.865303 105 2754ft 151kts
22-Oct-20 11:49 46.960618 -123.794041 99 4617ft 203kts
22-Oct-20 11:51 46.954763 -123.708617 90 5865ft 246kts
22-Oct-20 11:52 46.960725 -123.603015 83 6721ft 261kts
22-Oct-20 11:53 46.963019 -123.495980 89 7837ft 265kts
22-Oct-20 11:54 46.959421 -123.387609 92 8931ft 267kts
22-Oct-20 11:55 46.962672 -123.278521 81 9989ft 271kts
22-Oct-20 11:56 46.964598 -123.166384 89 11095ft 279kts
22-Oct-20 11:57 46.967965 -123.051801 82 12187ft 283kts
22-Oct-20 11:58 46.970692 -122.933195 83 12889ft 301kts
22-Oct-20 11:59 46.977211 -122.807448 62 13020ft 313kts
22-Oct-20 12:00 47.044975 -122.739655 15 13010ft 304kts
22-Oct-20 12:01 47.126608 -122.708353 8 13006ft 301kts
22-Oct-20 12:02 47.208594 -122.681806 18 13005ft 304kts
22-Oct-20 12:03 47.284173 -122.624554 27 13013ft 307kts
22-Oct-20 12:04 47.336159 -122.531067 87 13015ft 332kts
22-Oct-20 12:05 47.294368 -122.410902 129 13002ft 337kts
22-Oct-20 12:05 47.243746 -122.323497 130 12999ft 333kts
22-Oct-20 12:07 47.173253 -122.203382 130 12989ft 332kts
22-Oct-20 12:07 47.124520 -122.115937 127 12979ft 332kts
22-Oct-20 12:09 47.067966 -121.983565 102 12984ft 330kts
22-Oct-20 12:09 47.056132 -121.873601 97 12965ft 327kts
22-Oct-20 12:10 47.031682 -121.744934 105 12949ft 328kts
22-Oct-20 12:11 47.010487 -121.615257 97 12939ft 326kts
22-Oct-20 12:12 46.995378 -121.484687 98 12980ft 325kts
22-Oct-20 12:13 46.978262 -121.354565 98 12976ft 324kts
22-Oct-20 12:14 46.960060 -121.224915 99 12976ft 326kts
22-Oct-20 12:15 46.941667 -121.094520 88 12998ft 324kts
22-Oct-20 12:16 46.955867 -120.965677 74 12993ft 320kts
22-Oct-20 12:17 46.975469 -120.838548 74 12989ft 319kts
22-Oct-20 12:18 46.995308 -120.711660 74 12993ft 322kts
22-Oct-20 12:19 47.015399 -120.583333 74 12995ft 322kts
22-Oct-20 12:20 47.032470 -120.455130 85 13003ft 322kts
22-Oct-20 12:21 47.064016 -120.336699 67 13010ft 319kts
22-Oct-20 12:22 47.101876 -120.218497 62 12997ft 320kts
22-Oct-20 12:23 47.137575 -120.099141 60 12999ft 317kts
22-Oct-20 12:24 47.176345 -119.982800 63 12998ft 317kts
22-Oct-20 12:25 47.212029 -119.863446 62 12997ft 320kts
22-Oct-20 12:26 47.257617 -119.752481 50 13000ft 314kts
22-Oct-20 12:27 47.309485 -119.651291 66 13009ft 315kts
22-Oct-20 12:28 47.344098 -119.532674 60 12998ft 318kts
22-Oct-20 12:29 47.380952 -119.413189 67 13005ft 320kts
22-Oct-20 12:30 47.391379 -119.283092 75 13018ft 319kts
22-Oct-20 12:31 47.407465 -119.152872 81 13002ft 324kts
22-Oct-20 12:32 47.413275 -119.089440 78 13004ft 324kts
22-Oct-20 12:33 47.428105 -118.962432 79 13002ft 323kts
22-Oct-20 12:34 47.440879 -118.831336 78 13000ft 320kts
22-Oct-20 12:35 47.455800 -118.702156 77 12997ft 320kts
22-Oct-20 12:36 47.469407 -118.571247 79 12993ft 323kts
22-Oct-20 12:37 47.482916 -118.440203 80 12990ft 321kts
22-Oct-20 12:38 47.490868 -118.308578 83 12983ft 321kts
22-Oct-20 12:39 47.505227 -118.178821 73 12980ft 321kts
22-Oct-20 12:40 47.520705 -118.048420 83 12977ft 323kts
22-Oct-20 12:41 47.534196 -117.918523 73 12977ft 317kts
22-Oct-20 12:42 47.547414 -117.789389 80 12967ft 318kts
22-Oct-20 12:43 47.561407 -117.658844 79 12968ft 322kts
22-Oct-20 12:44 47.604079 -117.557019 14 12994ft 305kts
22-Oct-20 12:45 47.687569 -117.542014 22 12984ft 306kts
22-Oct-20 12:46 47.761599 -117.477820 22 12980ft 309kts
22-Oct-20 12:47 47.838686 -117.419678 27 12982ft 310kts
22-Oct-20 12:48 47.916412 -117.368786 6 12989ft 304kts
22-Oct-20 12:49 48.000888 -117.359275 1 12976ft 304kts
22-Oct-20 12:50 48.086141 -117.352803 1 12977ft 308kts
22-Oct-20 12:51 48.171598 -117.346268 1 12979ft 306kts
22-Oct-20 12:52 48.249575 -117.342962 357 12882ft 255kts
22-Oct-20 12:53 48.315939 -117.345828 356 12305ft 239kts
22-Oct-20 12:54 48.389072 -117.350568 356 9884ft 277kts
22-Oct-20 12:55 48.462289 -117.358620 356 9157ft 247kts
22-Oct-20 12:56 48.530173 -117.366968 356 9187ft 243kts
22-Oct-20 12:57 48.597600 -117.375067 356 9188ft 242kts
22-Oct-20 12:58 48.664979 -117.383147 356 9188ft 242kts
22-Oct-20 12:59 48.732140 -117.390991 356 9188ft 241kts
22-Oct-20 13:00 48.799020 -117.398812 354 9303ft 236kts
22-Oct-20 13:01 48.773116 -117.416372 154 3240ft 199kts
22-Oct-20 13:02 48.729630 -117.413288 166 2532ft 128kts
22-Oct-20 13:03 48.709606 -117.412523 354 2117ft 10kts
22-Oct-20 13:04 48.712955 -117.414559 346 2113ft 13kts

Navigation Log

Ident Type
Flight plan parsing failed, navigation log unavailable